Time;durP1;ratioP1;P1;durP2;ratioP2;P2;SDS_P1;SDS_P2;PMS_P1;PMS_P2;Temp;Humidity;BMP_temperature;BMP_pressure;BME280_temperature;BME280_humidity;BME280_pressure;Samples;Min_cycle;Max_cycle;Signal;HPM_P1;HPM_P2
2021/04/19 00:01:10;;;;;;;74.95;36.75;;;;;;;10.50;77.51;99553.06;5031851;28;20485;-40
2021/04/19 00:03:35;;;;;;;76.35;36.33;;;;;;;10.63;77.05;99562.88;5031890;28;20022;-37
2021/04/19 00:06:01;;;;;;;70.90;34.70;;;;;;;10.82;76.45;99554.03;5031635;28;20477;-37
2021/04/19 00:08:27;;;;;;;74.95;37.08;;;;;;;10.73;76.60;99565.91;5031278;28;20049;-38
2021/04/19 00:10:52;;;;;;;75.65;36.53;;;;;;;10.50;76.79;99571.69;5031720;28;20036;-38
2021/04/19 00:13:18;;;;;;;71.55;34.72;;;;;;;10.48;77.01;99581.72;5030004;28;20432;-38
2021/04/19 00:15:43;;;;;;;70.57;34.97;;;;;;;10.51;76.82;99578.66;5031620;28;20033;-39
2021/04/19 00:18:09;;;;;;;72.28;34.92;;;;;;;10.46;77.10;99573.13;5031675;28;20037;-39
2021/04/19 00:20:34;;;;;;;75.40;35.90;;;;;;;10.54;76.58;99571.06;5031336;28;20454;-38
2021/04/19 00:23:00;;;;;;;71.68;35.10;;;;;;;10.64;76.60;99570.66;5031419;28;20033;-39
2021/04/19 00:25:25;;;;;;;70.68;35.10;;;;;;;10.65;76.24;99566.97;5030273;28;20033;-39
2021/04/19 00:27:51;;;;;;;74.80;35.15;;;;;;;10.48;76.86;99566.56;5031731;28;20033;-39
2021/04/19 00:30:17;;;;;;;75.38;36.42;;;;;;;10.66;77.26;99555.31;5031210;28;20025;-38
2021/04/19 00:32:42;;;;;;;70.03;35.80;;;;;;;10.72;76.36;99543.00;5030910;28;20037;-38
2021/04/19 00:35:08;;;;;;;76.85;35.45;;;;;;;10.61;76.96;99548.97;5031226;28;20112;-38
2021/04/19 00:37:34;;;;;;;76.30;35.40;;;;;;;10.79;75.67;99542.97;5029799;28;20029;-38
2021/04/19 00:39:59;;;;;;;70.55;34.70;;;;;;;10.70;76.08;99537.88;5031212;28;20032;-39
2021/04/19 00:42:25;;;;;;;76.13;35.95;;;;;;;10.63;76.40;99537.06;5031267;28;20397;-38
2021/04/19 00:44:50;;;;;;;75.28;35.38;;;;;;;10.73;76.11;99547.28;5030903;28;20033;-38
2021/04/19 00:47:16;;;;;;;78.35;36.90;;;;;;;10.70;75.70;99547.69;5030305;28;20081;-38
2021/04/19 00:49:41;;;;;;;78.45;36.75;;;;;;;10.65;75.87;99556.31;5029365;28;20033;-38
2021/04/19 00:52:07;;;;;;;77.38;35.65;;;;;;;11.08;74.79;99550.44;5030776;28;20029;-38
2021/04/19 00:54:32;;;;;;;72.93;34.63;;;;;;;10.75;75.39;99559.34;5029612;28;20025;-38
2021/04/19 00:56:58;;;;;;;72.88;34.78;;;;;;;10.49;76.16;99562.06;5013242;28;20053;-38
2021/04/19 00:59:23;;;;;;;76.22;35.80;;;;;;;10.58;76.13;99560.81;5029656;28;20355;-38
2021/04/19 01:01:49;;;;;;;73.53;35.42;;;;;;;10.84;74.80;99562.63;5011106;28;20026;-39
2021/04/19 01:04:14;;;;;;;74.63;35.50;;;;;;;10.79;75.11;99559.75;5010869;28;20410;-38
2021/04/19 01:06:40;;;;;;;78.72;37.15;;;;;;;10.74;75.73;99556.91;5011244;28;20033;-38
2021/04/19 01:09:06;;;;;;;69.75;34.58;;;;;;;10.79;75.40;99562.41;5010610;28;20056;-38
2021/04/19 01:11:32;;;;;;;71.50;35.35;;;;;;;10.71;76.05;99554.66;5011192;28;20544;-38
2021/04/19 01:13:57;;;;;;;81.88;35.67;;;;;;;10.64;76.02;99554.69;5011022;28;20077;-38
2021/04/19 01:16:22;;;;;;;74.80;35.42;;;;;;;10.87;75.21;99546.22;5011083;28;20029;-38
2021/04/19 01:18:48;;;;;;;72.90;35.95;;;;;;;10.81;75.69;99555.03;5011130;28;20076;-39
2021/04/19 01:21:14;;;;;;;75.20;37.33;;;;;;;10.73;75.80;99541.97;5011091;28;20034;-38
2021/04/19 01:23:39;;;;;;;76.10;36.17;;;;;;;10.61;75.75;99540.97;5011088;28;20033;-38
2021/04/19 01:26:05;;;;;;;78.55;36.83;;;;;;;10.54;76.47;99538.31;5011038;28;20022;-38
2021/04/19 01:28:30;;;;;;;76.53;36.00;;;;;;;10.29;76.43;99527.50;5011187;28;20029;-37
2021/04/19 01:30:56;;;;;;;79.28;36.58;;;;;;;10.55;76.02;99529.34;5010849;28;20402;-37
2021/04/19 01:33:21;;;;;;;78.10;36.95;;;;;;;10.66;75.91;99535.84;5010980;28;20022;-38
2021/04/19 01:35:47;;;;;;;76.75;37.20;;;;;;;10.72;75.53;99529.69;5010911;28;20030;-39
2021/04/19 01:38:14;;;;;;;79.97;37.15;;;;;;;10.82;75.18;99522.06;5010605;28;20347;-37
2021/04/19 01:40:39;;;;;;;77.47;37.38;;;;;;;10.67;75.98;99529.50;5010844;28;20053;-38
2021/04/19 01:43:05;;;;;;;79.78;37.95;;;;;;;10.78;75.81;99528.84;5010665;28;20080;-38
2021/04/19 01:45:30;;;;;;;77.15;37.03;;;;;;;10.50;76.34;99535.25;5009556;28;20026;-38
2021/04/19 01:47:56;;;;;;;81.40;38.58;;;;;;;10.54;76.95;99544.44;5022868;28;20025;-39
2021/04/19 01:50:26;;;;;;;84.38;38.72;;;;;;;10.48;76.62;99542.63;5030302;28;20398;-38
2021/04/19 01:52:51;;;;;;;78.80;37.85;;;;;;;10.51;76.48;99541.41;5030418;28;20401;-39
2021/04/19 01:55:20;;;;;;;76.75;37.95;;;;;;;10.75;75.75;99542.56;5030550;28;20026;-39
2021/04/19 01:58:09;;;;;;;80.53;39.33;;;;;;;10.54;76.21;99541.78;5030354;28;20082;-39
2021/04/19 02:00:37;;;;;;;79.20;37.67;;;;;;;10.64;76.71;99541.38;5027548;28;20041;-39
2021/04/19 02:03:06;;;;;;;83.07;39.13;;;;;;;10.59;76.04;99537.72;5030318;28;20060;-38
2021/04/19 02:05:33;;;;;;;88.85;40.97;;;;;;;10.86;75.40;99533.13;5030057;28;20112;-39
2021/04/19 02:08:19;;;;;;;82.15;38.22;;;;;;;10.66;75.91;99535.84;5028653;28;20513;-39
2021/04/19 02:10:47;;;;;;;82.45;38.53;;;;;;;10.66;75.85;99522.53;5029223;28;20040;-39
2021/04/19 02:13:21;;;;;;;84.05;39.25;;;;;;;10.71;75.61;99530.72;5012536;28;20029;-39
2021/04/19 02:16:00;;;;;;;77.70;37.83;;;;;;;10.43;76.75;99529.13;5030316;28;20048;-39
2021/04/19 02:18:42;;;;;;;80.53;37.75;;;;;;;10.40;76.99;99528.75;5032389;28;20025;-39
2021/04/19 02:21:10;;;;;;;78.55;38.10;;;;;;;10.51;76.68;99528.13;5034011;28;20030;-39
2021/04/19 02:23:38;;;;;;;81.38;38.10;;;;;;;10.54;76.85;99525.81;5032555;28;20029;-38
2021/04/19 02:26:25;;;;;;;85.68;39.45;;;;;;;10.62;77.21;99526.63;5016428;28;20029;-38
2021/04/19 02:28:51;;;;;;;80.93;37.58;;;;;;;10.47;77.36;99521.56;5032287;28;20029;-38
2021/04/19 02:31:16;;;;;;;78.18;37.78;;;;;;;10.51;77.10;99518.28;5033894;28;20030;-39
2021/04/19 02:33:43;;;;;;;80.70;38.72;;;;;;;10.29;78.00;99509.69;5033462;28;20132;-39
2021/04/19 02:36:10;;;;;;;78.07;39.00;;;;;;;10.55;77.33;99519.50;5032314;28;20033;-39
2021/04/19 02:38:36;;;;;;;75.50;38.13;;;;;;;10.50;77.64;99516.63;5032324;28;20033;-38
2021/04/19 02:41:03;;;;;;;84.40;39.45;;;;;;;10.44;78.07;99509.50;5032613;28;20025;-39
2021/04/19 02:43:31;;;;;;;81.90;39.47;;;;;;;10.43;78.20;99512.34;5033684;28;20029;-39
2021/04/19 02:45:57;;;;;;;80.47;37.35;;;;;;;10.34;78.15;99515.25;5031943;28;20497;-39
2021/04/19 02:48:23;;;;;;;79.70;38.47;;;;;;;10.44;78.16;99511.34;5031887;28;20030;-39
2021/04/19 02:50:49;;;;;;;77.30;38.13;;;;;;;10.52;78.03;99514.56;5031864;28;20053;-39
2021/04/19 02:53:15;;;;;;;78.15;37.40;;;;;;;10.34;79.07;99517.09;5033588;28;20138;-39
2021/04/19 02:55:41;;;;;;;73.60;34.70;;;;;;;10.22;80.13;99516.84;5031982;28;20029;-38
2021/04/19 02:58:06;;;;;;;76.15;36.42;;;;;;;10.23;80.68;99523.00;5031722;28;20021;-38
2021/04/19 03:00:34;;;;;;;77.43;36.25;;;;;;;10.26;79.86;99533.22;5032771;28;20033;-38
2021/04/19 03:03:02;;;;;;;71.68;35.70;;;;;;;10.40;79.86;99540.19;5031583;28;20029;-39
2021/04/19 03:05:28;;;;;;;68.78;33.75;;;;;;;10.28;80.73;99534.66;5032428;28;20469;-38
2021/04/19 03:07:57;;;;;;;76.03;37.67;;;;;;;10.49;80.01;99530.97;5031681;28;20488;-39
2021/04/19 03:10:22;;;;;;;67.72;32.58;;;;;;;10.22;80.82;99522.16;5032671;28;20130;-39
2021/04/19 03:12:50;;;;;;;70.60;33.58;;;;;;;10.26;81.26;99517.25;5031499;28;20029;-39
2021/04/19 03:15:24;;;;;;;67.47;30.83;;;;;;;10.43;80.51;99510.50;5031729;28;20032;-39
2021/04/19 03:17:49;;;;;;;69.13;31.38;;;;;;;10.14;81.81;99501.13;5031415;28;20116;-39
2021/04/19 03:20:22;;;;;;;66.93;30.55;;;;;;;10.06;81.72;99494.19;5031350;28;20084;-38
2021/04/19 03:22:48;;;;;;;64.28;30.83;;;;;;;10.20;81.38;99510.91;5015199;28;20022;-39
2021/04/19 03:25:14;;;;;;;62.50;28.75;;;;;;;10.06;82.17;99512.78;5014588;28;20497;-38
2021/04/19 03:27:42;;;;;;;65.65;30.63;;;;;;;10.25;81.28;99511.13;5031179;28;20116;-39
2021/04/19 03:30:08;;;;;;;75.00;30.67;;;;;;;10.04;82.40;99514.03;5015145;28;20061;-39
2021/04/19 03:32:37;;;;;;;63.25;29.80;;;;;;;10.23;81.50;99523.81;5031045;28;20021;-38
2021/04/19 03:35:04;;;;;;;59.47;29.25;;;;;;;10.48;80.45;99505.38;5030791;28;20126;-39
2021/04/19 03:37:30;;;;;;;56.65;28.30;;;;;;;10.33;80.59;99510.13;5014451;28;20025;-39
2021/04/19 03:40:07;;;;;;;57.60;28.45;;;;;;;10.49;80.27;99508.84;5014342;28;20022;-39
2021/04/19 03:42:33;;;;;;;66.10;32.47;;;;;;;10.41;80.88;99522.38;5030430;28;20130;-39
2021/04/19 03:44:59;;;;;;;56.30;29.02;;;;;;;10.27;81.11;99519.72;5030258;28;20215;-39
2021/04/19 03:47:24;;;;;;;55.03;28.35;;;;;;;10.21;81.19;99519.75;5013787;28;20226;-39
2021/04/19 03:49:53;;;;;;;55.20;26.30;;;;;;;10.13;81.67;99510.94;5013909;28;20394;-39
2021/04/19 03:52:21;;;;;;;58.58;27.08;;;;;;;10.06;81.84;99507.47;5031322;28;20027;-39
2021/04/19 03:54:47;;;;;;;58.00;27.48;;;;;;;10.17;82.54;99506.03;5014081;28;20021;-39
2021/04/19 03:57:17;;;;;;;56.00;26.65;;;;;;;10.39;82.66;99503.16;5031537;28;20024;-39
2021/04/19 03:59:44;;;;;;;55.42;26.80;;;;;;;10.65;81.66;99495.09;5028901;28;20013;-53
2021/04/19 04:02:09;;;;;;;43.67;21.52;;;;;;;10.73;81.44;99496.72;5029571;28;20026;-53
2021/04/19 04:04:35;;;;;;;42.45;22.20;;;;;;;11.03;81.17;99488.19;5007947;28;20367;-52
2021/04/19 04:07:03;;;;;;;41.47;21.27;;;;;;;11.27;79.46;99492.78;5009838;28;20040;-51
2021/04/19 04:09:29;;;;;;;38.30;19.60;;;;;;;11.55;76.90;99489.72;5012092;28;20338;-52
2021/04/19 04:11:54;;;;;;;37.25;19.60;;;;;;;11.31;78.81;99496.66;5011174;28;20025;-53
2021/04/19 04:14:19;;;;;;;36.95;19.27;;;;;;;11.58;77.58;99487.69;5012301;28;20026;-53
2021/04/19 04:16:45;;;;;;;35.00;18.52;;;;;;;11.72;76.88;99487.34;5018336;28;20497;-53
2021/04/19 04:19:10;;;;;;;37.50;18.20;;;;;;;11.46;76.61;99491.03;5009913;28;20040;-52
2021/04/19 04:21:36;;;;;;;37.60;19.10;;;;;;;11.48;76.42;99490.78;5009049;28;20386;-51
2021/04/19 04:24:02;;;;;;;36.03;18.02;;;;;;;11.47;77.45;99489.19;5008061;28;20026;-52
2021/04/19 04:26:28;;;;;;;32.55;17.00;;;;;;;10.80;78.05;99491.38;5023799;28;20025;-50
2021/04/19 04:28:54;;;;;;;41.53;19.80;;;;;;;10.74;78.24;99488.53;5026767;28;20017;-50
2021/04/19 04:31:19;;;;;;;41.08;19.42;;;;;;;10.48;79.53;99492.09;5028972;28;20021;-50
2021/04/19 04:33:45;;;;;;;44.38;20.98;;;;;;;10.41;79.71;99493.13;5030221;28;20057;-51
2021/04/19 04:36:10;;;;;;;38.65;19.17;;;;;;;10.46;79.80;99478.19;5025407;28;20169;-52
2021/04/19 04:38:35;;;;;;;42.17;19.73;;;;;;;10.46;79.80;99480.03;5011809;28;20030;-55
2021/04/19 04:41:01;;;;;;;44.75;19.90;;;;;;;10.40;80.07;99481.69;5010106;28;20040;-51
2021/04/19 04:43:27;;;;;;;44.65;19.17;;;;;;;9.91;81.76;99485.59;5009773;28;20025;-51
2021/04/19 04:46:01;;;;;;;44.83;19.13;;;;;;;9.86;82.07;99485.38;5008322;28;20074;-53
2021/04/19 04:48:38;;;;;;;46.22;19.67;;;;;;;10.02;81.80;99492.97;5024536;28;20578;-55
2021/04/19 04:51:09;;;;;;;43.85;19.73;;;;;;;10.21;81.25;99499.28;5028108;28;20021;-49
2021/04/19 04:53:41;;;;;;;43.80;18.77;;;;;;;10.07;81.26;99517.09;5028527;28;20026;-55
2021/04/19 04:56:07;;;;;;;43.33;20.73;;;;;;;9.95;81.88;99508.09;5012392;28;20181;-51
2021/04/19 04:58:34;;;;;;;43.22;20.15;;;;;;;10.10;81.33;99503.38;5012313;28;20505;-53
2021/04/19 05:01:00;;;;;;;39.03;18.33;;;;;;;10.23;81.19;99509.72;5030544;28;20022;-51
2021/04/19 05:03:25;;;;;;;52.55;26.20;;;;;;;10.27;80.97;99510.94;5030127;28;20441;-53
2021/04/19 05:05:51;;;;;;;35.83;19.27;;;;;;;9.96;81.78;99499.09;5012397;28;20339;-53
2021/04/19 05:08:16;;;;;;;39.90;19.65;;;;;;;10.20;81.03;99488.84;5012414;28;20053;-52
2021/04/19 05:10:42;;;;;;;41.67;19.35;;;;;;;10.18;81.10;99484.56;5028711;28;20030;-52
2021/04/19 05:13:17;;;;;;;37.00;19.73;;;;;;;10.58;80.18;99483.66;5019539;28;20026;-49
2021/04/19 05:15:46;;;;;;;38.70;18.95;;;;;;;11.01;78.62;99500.91;5011787;28;20033;-50
2021/04/19 05:18:15;;;;;;;38.72;18.85;;;;;;;10.78;78.80;99485.47;5030690;28;20049;-49
2021/04/19 05:20:41;;;;;;;36.15;18.30;;;;;;;11.15;77.66;99484.63;5030445;28;20464;-51
2021/04/19 05:23:07;;;;;;;32.45;17.15;;;;;;;11.02;77.78;99494.53;5030788;28;20083;-48
2021/04/19 05:25:33;;;;;;;35.33;17.48;;;;;;;11.30;76.44;99495.00;5030362;28;20026;-50
2021/04/19 05:27:59;;;;;;;32.63;16.58;;;;;;;11.57;76.01;99494.03;5029877;28;20030;-49
2021/04/19 05:30:25;;;;;;;33.38;16.50;;;;;;;11.01;77.31;99501.72;5029706;28;20048;-50
2021/04/19 05:32:50;;;;;;;37.83;17.33;;;;;;;10.96;77.71;99473.06;5028651;28;20077;-52
2021/04/19 05:35:17;;;;;;;35.58;18.05;;;;;;;11.31;76.49;99477.19;5028715;28;20022;-50
2021/04/19 05:37:42;;;;;;;37.85;16.27;;;;;;;11.17;76.92;99479.09;5030122;28;20022;-52
2021/04/19 05:40:08;;;;;;;33.53;17.05;;;;;;;11.31;76.60;99479.84;5028837;28;20029;-50
2021/04/19 05:42:35;;;;;;;33.05;16.70;;;;;;;10.80;78.48;99470.09;5028523;28;20024;-49
2021/04/19 05:45:00;;;;;;;29.35;16.98;;;;;;;10.67;78.64;99473.59;5011975;28;20445;-49
2021/04/19 05:47:25;;;;;;;35.35;17.52;;;;;;;10.94;77.33;99483.09;5028089;28;20022;-48
2021/04/19 05:49:52;;;;;;;37.47;18.30;;;;;;;11.04;77.45;99481.84;5029329;28;20033;-50
2021/04/19 05:52:17;;;;;;;36.67;17.92;;;;;;;11.41;76.13;99488.19;5032039;28;20037;-51
2021/04/19 05:54:42;;;;;;;31.40;16.75;;;;;;;11.17;76.55;99484.44;5033286;28;20030;-49
2021/04/19 05:57:35;;;;;;;35.08;17.55;;;;;;;11.14;76.72;99479.53;5031803;28;20033;-51
2021/04/19 06:00:15;;;;;;;35.50;17.98;;;;;;;10.97;77.48;99481.88;5032827;28;20048;-53
2021/04/19 06:02:51;;;;;;;35.55;17.77;;;;;;;11.08;76.56;99483.03;5031911;28;20056;-51
2021/04/19 06:05:41;;;;;;;33.97;17.83;;;;;;;10.90;77.32;99481.09;5031415;28;20534;-52
2021/04/19 06:08:15;;;;;;;31.00;17.33;;;;;;;10.86;77.53;99487.88;5031908;28;20029;-52
2021/04/19 06:10:49;;;;;;;30.73;17.80;;;;;;;11.14;76.02;99487.53;5015282;28;20034;-49
2021/04/19 06:13:17;;;;;;;33.15;17.52;;;;;;;10.94;76.92;99482.28;5032762;28;20448;-50
2021/04/19 06:15:43;;;;;;;32.17;17.55;;;;;;;10.72;77.49;99477.28;5031837;28;20073;-50
2021/04/19 06:18:09;;;;;;;30.42;16.42;;;;;;;10.35;79.11;99476.16;5015238;28;20099;-51
2021/04/19 06:20:35;;;;;;;28.20;15.30;;;;;;;10.10;79.63;99466.16;5032064;28;20025;-50
2021/04/19 06:23:00;;;;;;;32.80;16.15;;;;;;;10.25;80.11;99463.25;5031662;28;20044;-49
2021/04/19 06:25:26;;;;;;;32.13;16.35;;;;;;;10.29;79.63;99453.03;5015007;28;20087;-51
2021/04/19 06:28:02;;;;;;;36.10;17.75;;;;;;;10.49;78.69;99450.31;5014924;28;20033;-50
2021/04/19 06:30:32;;;;;;;36.17;17.55;;;;;;;10.48;79.12;99448.72;5032628;28;20045;-50
2021/04/19 06:32:58;;;;;;;32.08;17.17;;;;;;;10.79;78.42;99436.50;5031415;28;20036;-48
2021/04/19 06:35:24;;;;;;;35.05;17.20;;;;;;;10.58;78.60;99451.72;5031757;28;20049;-49
2021/04/19 06:37:54;;;;;;;35.28;18.70;;;;;;;10.52;79.63;99434.75;5032790;28;20382;-51
2021/04/19 06:40:20;;;;;;;35.08;18.70;;;;;;;10.53;79.35;99425.78;5032820;28;20029;-48
2021/04/19 06:42:45;;;;;;;37.45;17.50;;;;;;;10.38;79.93;99430.53;5033035;28;20037;-51
2021/04/19 06:45:13;;;;;;;33.63;17.27;;;;;;;10.34;80.36;99424.00;5032596;28;20056;-51
2021/04/19 06:47:38;;;;;;;30.80;17.23;;;;;;;10.45;79.93;99439.31;5032498;28;20033;-51
2021/04/19 06:50:04;;;;;;;33.25;17.40;;;;;;;10.23;80.69;99424.63;5032238;28;20080;-51
2021/04/19 06:52:31;;;;;;;34.15;17.80;;;;;;;10.72;79.67;99426.72;5032297;28;20060;-49
2021/04/19 06:54:56;;;;;;;34.75;18.33;;;;;;;10.61;79.66;99427.38;5032222;28;20029;-49
2021/04/19 06:57:22;;;;;;;27.73;15.30;;;;;;;10.29;79.95;99419.25;5030593;28;20021;-49
2021/04/19 06:59:47;;;;;;;29.13;15.05;;;;;;;10.40;80.09;99409.84;5013944;28;20446;-51
2021/04/19 07:02:33;;;;;;;27.77;15.63;;;;;;;10.63;79.50;99425.31;5031453;28;20413;-48
2021/04/19 07:04:58;;;;;;;23.92;13.98;;;;;;;10.22;80.15;99425.63;5014402;28;20041;-50
2021/04/19 07:07:30;;;;;;;25.45;14.07;;;;;;;10.53;79.12;99420.44;5014481;28;20402;-49
2021/04/19 07:09:56;;;;;;;24.23;13.60;;;;;;;10.62;78.37;99420.19;5031785;28;20518;-50
2021/04/19 07:12:22;;;;;;;18.70;11.05;;;;;;;10.43;77.92;99435.22;5030032;28;20033;-49
2021/04/19 07:14:48;;;;;;;20.42;12.02;;;;;;;10.35;78.55;99423.75;5014017;28;20413;-52
2021/04/19 07:17:14;;;;;;;18.50;11.57;;;;;;;10.72;78.01;99433.88;5031579;28;20036;-50
2021/04/19 07:19:39;;;;;;;16.92;11.07;;;;;;;10.66;77.67;99437.38;5013985;28;20030;-53
2021/04/19 07:22:05;;;;;;;18.42;10.68;;;;;;;10.49;78.06;99429.88;5031454;28;20508;-50
2021/04/19 07:24:30;;;;;;;17.65;10.50;;;;;;;11.25;75.05;99451.41;5030645;28;20040;-53
2021/04/19 07:26:56;;;;;;;16.20;10.93;;;;;;;10.74;77.44;99456.59;5031430;28;20038;-50
2021/04/19 07:29:22;;;;;;;18.95;10.75;;;;;;;10.70;77.18;99439.41;5031363;28;20101;-52
2021/04/19 07:31:52;;;;;;;18.52;11.02;;;;;;;10.85;76.42;99431.16;5031641;28;20064;-51
2021/04/19 07:34:22;;;;;;;17.83;10.85;;;;;;;10.82;76.24;99436.09;5031613;28;20025;-49
2021/04/19 07:36:58;;;;;;;15.98;10.38;;;;;;;10.68;77.41;99436.16;5031460;28;20029;-50
2021/04/19 07:39:25;;;;;;;16.45;10.93;;;;;;;11.24;75.10;99423.94;5031438;28;20091;-50
2021/04/19 07:41:55;;;;;;;19.27;11.00;;;;;;;11.11;75.31;99435.50;5031300;28;20064;-49
2021/04/19 07:44:42;;;;;;;15.55;10.27;;;;;;;11.16;75.67;99432.22;5031532;28;20036;-50
2021/04/19 07:47:37;;;;;;;15.45;10.90;;;;;;;10.69;77.13;99432.44;5031148;28;20537;-50
2021/04/19 07:50:22;;;;;;;18.77;10.88;;;;;;;10.51;77.85;99424.34;5031387;28;20057;-50
2021/04/19 07:52:59;;;;;;;19.80;11.68;;;;;;;10.81;78.02;99443.22;5029744;28;20108;-50
2021/04/19 07:55:37;;;;;;;20.65;12.15;;;;;;;10.53;78.20;99430.28;5031017;28;20051;-50
2021/04/19 07:58:17;;;;;;;23.83;12.35;;;;;;;10.57;78.61;99429.63;5031141;28;20090;-50
2021/04/19 08:00:42;;;;;;;20.93;12.87;;;;;;;10.57;78.54;99429.63;5031030;28;20531;-53
2021/04/19 08:03:13;;;;;;;22.05;13.13;;;;;;;10.73;78.56;99423.00;5031080;28;20276;-49
2021/04/19 08:05:48;;;;;;;21.63;13.30;;;;;;;10.84;78.07;99429.50;5030905;28;20036;-49
2021/04/19 08:08:13;;;;;;;21.13;13.88;;;;;;;10.76;78.72;99421.78;5030790;28;20029;-50
2021/04/19 08:10:41;;;;;;;24.27;14.82;;;;;;;11.15;77.74;99419.91;5030594;28;20509;-49
2021/04/19 08:13:19;;;;;;;22.85;14.15;;;;;;;10.93;78.57;99417.59;5030293;28;20234;-50
2021/04/19 08:15:45;;;;;;;22.40;14.95;;;;;;;10.91;77.95;99413.53;5029988;28;20033;-49
2021/04/19 08:18:15;;;;;;;23.10;14.55;;;;;;;10.64;78.87;99396.84;5030065;28;20022;-48
2021/04/19 08:20:54;;;;;;;24.98;15.32;;;;;;;10.56;79.20;99388.06;5030176;28;20112;-52
2021/04/19 08:23:20;;;;;;;22.40;14.18;;;;;;;10.63;79.14;99380.06;5030227;28;20090;-52
2021/04/19 08:25:48;;;;;;;24.42;15.05;;;;;;;10.95;77.80;99377.44;5030367;28;20025;-53
2021/04/19 08:28:18;;;;;;;22.80;14.38;;;;;;;11.04;76.84;99367.34;5030316;28;20496;-51
2021/04/19 08:30:44;;;;;;;;;;;;;;;11.20;76.43;99371.34;5030475;28;20405;-51
2021/04/19 08:33:10;;;;;;;23.23;14.57;;;;;;;11.30;76.60;99361.81;5029929;28;20400;-52
2021/04/19 08:35:35;;;;;;;20.73;13.77;;;;;;;11.13;76.36;99353.53;5030146;28;20132;-52
2021/04/19 08:38:02;;;;;;;25.40;14.43;;;;;;;11.33;76.05;99341.94;5030066;28;20034;-52
2021/04/19 08:40:28;;;;;;;22.88;14.20;;;;;;;11.37;74.60;99343.13;5029920;28;20133;-49
2021/04/19 08:42:54;;;;;;;23.58;14.23;;;;;;;11.03;76.35;99342.56;5029846;28;20053;-52
2021/04/19 08:45:20;;;;;;;20.92;13.95;;;;;;;11.16;76.05;99333.66;5030029;28;20025;-52
2021/04/19 08:47:45;;;;;;;22.85;14.25;;;;;;;11.55;74.94;99332.47;5028611;28;20025;-52
2021/04/19 08:50:16;;;;;;;22.08;13.68;;;;;;;11.10;75.51;99331.84;5012159;28;20026;-53
2021/04/19 08:52:42;;;;;;;23.92;13.93;;;;;;;11.43;75.46;99331.59;5029690;28;20501;-52
2021/04/19 08:55:08;;;;;;;23.60;14.57;;;;;;;11.31;75.32;99341.34;5028385;28;20052;-49
2021/04/19 08:57:34;;;;;;;24.38;13.75;;;;;;;11.25;75.28;99328.88;5029599;28;20029;-51
2021/04/19 08:59:59;;;;;;;21.83;14.10;;;;;;;10.98;75.05;99318.44;5029458;28;20107;-52
2021/04/19 09:02:25;;;;;;;23.30;13.38;;;;;;;10.63;76.13;99308.22;5029780;28;20060;-48
2021/04/19 09:05:10;;;;;;;22.60;15.30;;;;;;;10.65;76.08;99300.84;5029581;28;20033;-48
2021/04/19 09:07:38;;;;;;;23.35;13.80;;;;;;;10.73;75.96;99318.41;5029936;28;20032;-51
2021/04/19 09:10:06;;;;;;;24.20;13.95;;;;;;;10.44;77.45;99317.16;5029563;28;20055;-53
2021/04/19 09:12:31;;;;;;;21.95;14.20;;;;;;;10.78;76.29;99313.25;5029842;28;20457;-53
2021/04/19 09:15:26;;;;;;;25.85;14.48;;;;;;;10.68;76.91;99331.53;5029881;28;20036;-52
2021/04/19 09:18:10;;;;;;;25.63;14.73;;;;;;;10.71;76.84;99310.63;5023943;28;20512;-51
2021/04/19 09:20:46;;;;;;;24.88;14.93;;;;;;;11.15;76.05;99308.84;5029431;28;20106;-50
2021/04/19 09:23:21;;;;;;;23.42;14.13;;;;;;;10.78;75.90;99310.59;5029634;28;20116;-50
2021/04/19 09:25:46;;;;;;;26.92;14.77;;;;;;;10.71;77.24;99320.47;5031512;28;20162;-53
2021/04/19 09:28:12;;;;;;;25.40;15.57;;;;;;;10.99;76.91;99301.44;5032411;28;20033;-50
2021/04/19 09:30:43;;;;;;;27.75;16.23;;;;;;;11.38;75.86;99293.31;5032442;28;20029;-54
2021/04/19 09:33:09;;;;;;;25.77;15.68;;;;;;;10.94;77.50;99290.59;5033573;28;20338;-50
2021/04/19 09:35:45;;;;;;;23.42;15.52;;;;;;;11.04;77.28;99296.28;5033432;28;20461;-51
2021/04/19 09:38:11;;;;;;;25.15;15.50;;;;;;;10.99;78.09;99287.31;5033180;28;20088;-53
2021/04/19 09:40:56;;;;;;;25.88;15.80;;;;;;;10.87;77.56;99274.69;5033447;28;20092;-52
2021/04/19 09:43:37;;;;;;;31.08;16.60;;;;;;;11.25;77.32;99257.78;5033776;28;20029;-52
2021/04/19 09:46:18;;;;;;;23.75;14.43;;;;;;;11.11;76.72;99266.91;5033183;28;20110;-52
2021/04/19 09:48:53;;;;;;;20.85;13.93;;;;;;;11.02;77.69;99265.56;5033653;28;20040;-50
2021/04/19 09:51:48;;;;;;;22.10;14.45;;;;;;;10.99;77.56;99274.00;5033348;28;20104;-50
2021/04/19 09:54:22;;;;;;;20.05;12.75;;;;;;;11.08;76.65;99262.84;5028533;28;20098;-51
2021/04/19 09:56:49;;;;;;;20.48;13.07;;;;;;;11.24;76.48;99229.50;5033418;28;20041;-52
2021/04/19 09:59:19;;;;;;;19.20;11.23;;;;;;;10.99;76.87;99276.66;5033077;28;20033;-52
2021/04/19 10:01:46;;;;;;;20.25;13.02;;;;;;;11.05;77.30;99241.97;5033059;28;20476;-51
2021/04/19 10:04:12;;;;;;;21.05;13.27;;;;;;;11.57;75.53;99231.00;5032953;28;20030;-51
2021/04/19 10:06:52;;;;;;;24.30;14.00;;;;;;;11.72;75.74;99235.97;5031320;28;20036;-53
2021/04/19 10:09:22;;;;;;;24.05;14.43;;;;;;;11.45;75.65;99238.13;5032329;28;20537;-49
2021/04/19 10:12:08;;;;;;;22.15;13.60;;;;;;;11.41;76.47;99237.75;5032409;28;20034;-53
2021/04/19 10:14:34;;;;;;;22.02;12.40;;;;;;;11.63;74.91;99243.47;5031963;28;20492;-50
2021/04/19 10:17:00;;;;;;;21.08;12.85;;;;;;;11.61;75.96;99232.19;5030596;28;20357;-49
2021/04/19 10:19:27;;;;;;;20.77;13.05;;;;;;;11.72;74.63;99255.44;5031852;28;20040;-49
2021/04/19 10:22:06;;;;;;;18.67;11.18;;;;;;;11.66;73.95;99219.00;5032989;28;20460;-49
2021/04/19 10:24:32;;;;;;;20.30;11.70;;;;;;;11.90;72.75;99235.19;5032154;28;20032;-51
2021/04/19 10:26:57;;;;;;;16.17;10.60;;;;;;;12.03;72.68;99219.00;5032424;28;20036;-53
2021/04/19 10:29:26;;;;;;;18.00;12.30;;;;;;;12.34;71.94;99235.81;5032488;28;20029;-51
2021/04/19 10:31:56;;;;;;;19.60;12.77;;;;;;;11.95;72.75;99235.31;5032542;28;20029;-51
2021/04/19 10:34:24;;;;;;;17.83;11.70;;;;;;;11.85;72.34;99238.47;5032072;28;20091;-53
2021/04/19 10:36:52;;;;;;;19.33;11.65;;;;;;;11.70;73.57;99249.50;5031415;28;20033;-52
2021/04/19 10:39:20;;;;;;;17.13;11.20;;;;;;;11.44;73.66;99239.97;5031830;28;20037;-50
2021/04/19 10:41:47;;;;;;;16.02;10.85;;;;;;;11.61;73.24;99242.03;5031755;28;20066;-53
2021/04/19 10:44:12;;;;;;;15.23;10.77;;;;;;;11.53;73.06;99237.81;5032090;28;20113;-51
2021/04/19 10:46:39;;;;;;;15.30;10.55;;;;;;;11.61;73.08;99260.69;5030931;28;20037;-51
2021/04/19 10:49:05;;;;;;;18.15;10.80;;;;;;;11.15;75.69;99241.47;5032385;28;20080;-53
2021/04/19 10:51:40;;;;;;;15.00;10.77;;;;;;;11.72;73.88;99244.75;5032113;28;20113;-55
2021/04/19 10:54:06;;;;;;;20.52;12.32;;;;;;;11.89;73.55;99260.16;5031655;28;20037;-55
2021/04/19 10:56:32;;;;;;;18.48;11.25;;;;;;;11.25;75.46;99251.63;5032079;28;20076;-55
2021/04/19 10:59:07;;;;;;;20.70;12.80;;;;;;;11.45;75.18;99243.44;5032087;28;20458;-54
2021/04/19 11:01:35;;;;;;;17.27;11.00;;;;;;;11.03;75.53;99243.25;5030987;28;20036;-54
2021/04/19 11:04:01;;;;;;;18.30;10.68;;;;;;;10.84;77.51;99203.25;5030332;28;20150;-53
2021/04/19 11:06:27;;;;;;;21.10;13.30;;;;;;;10.67;79.75;99159.59;5030437;28;20068;-54
2021/04/19 11:08:52;;;;;;;22.70;13.90;;;;;;;10.64;79.83;99128.94;5031515;28;20139;-54
2021/04/19 11:11:30;;;;;;;26.67;14.88;;;;;;;10.75;79.53;99148.66;5031700;28;20104;-53
2021/04/19 11:14:09;;;;;;;28.27;15.85;;;;;;;10.89;78.99;99152.00;5031854;28;20108;-53
2021/04/19 11:16:34;;;;;;;24.40;13.85;;;;;;;10.95;79.14;99159.94;5031795;28;20132;-52
2021/04/19 11:19:00;;;;;;;21.67;13.98;;;;;;;11.61;78.37;99170.88;5031441;28;20052;-51
2021/04/19 11:21:29;;;;;;;21.55;14.45;;;;;;;12.08;77.32;99170.31;5031712;28;20033;-53
2021/04/19 11:24:08;;;;;;;25.25;14.50;;;;;;;12.46;75.37;99185.16;5031378;28;20446;-50